sensor_id;sensor_type;location;lat;lon;timestamp;P1;durP1;ratioP1;P2;durP2;ratioP2
75554;SDS011;66087;53.126;17.960;2023-08-30T00:01:11;11.80;;;5.80;;
75554;SDS011;66087;53.126;17.960;2023-08-30T00:03:38;11.40;;;5.90;;
75554;SDS011;66087;53.126;17.960;2023-08-30T00:06:05;12.40;;;6.50;;
75554;SDS011;66087;53.126;17.960;2023-08-30T00:08:33;12.80;;;5.90;;
75554;SDS011;66087;53.126;17.960;2023-08-30T00:11:00;13.10;;;4.70;;
75554;SDS011;66087;53.126;17.960;2023-08-30T00:13:29;13.00;;;5.80;;
75554;SDS011;66087;53.126;17.960;2023-08-30T00:15:59;14.10;;;6.70;;
75554;SDS011;66087;53.126;17.960;2023-08-30T00:18:26;9.10;;;3.50;;
75554;SDS011;66087;53.126;17.960;2023-08-30T00:20:53;11.60;;;5.40;;
75554;SDS011;66087;53.126;17.960;2023-08-30T00:23:19;10.70;;;4.80;;
75554;SDS011;66087;53.126;17.960;2023-08-30T00:25:46;14.20;;;6.10;;
75554;SDS011;66087;53.126;17.960;2023-08-30T00:28:13;12.20;;;6.00;;
75554;SDS011;66087;53.126;17.960;2023-08-30T00:30:39;12.00;;;6.00;;
75554;SDS011;66087;53.126;17.960;2023-08-30T00:33:07;10.50;;;5.10;;
75554;SDS011;66087;53.126;17.960;2023-08-30T00:35:34;12.40;;;5.20;;
75554;SDS011;66087;53.126;17.960;2023-08-30T00:38:01;11.80;;;5.30;;
75554;SDS011;66087;53.126;17.960;2023-08-30T00:40:28;11.90;;;4.90;;
75554;SDS011;66087;53.126;17.960;2023-08-30T00:42:56;12.60;;;5.70;;
75554;SDS011;66087;53.126;17.960;2023-08-30T00:45:22;10.70;;;4.80;;
75554;SDS011;66087;53.126;17.960;2023-08-30T00:47:50;10.90;;;5.40;;
75554;SDS011;66087;53.126;17.960;2023-08-30T00:50:17;10.50;;;5.00;;
75554;SDS011;66087;53.126;17.960;2023-08-30T00:52:44;11.10;;;5.50;;
75554;SDS011;66087;53.126;17.960;2023-08-30T00:55:11;12.70;;;5.90;;
75554;SDS011;66087;53.126;17.960;2023-08-30T00:57:38;10.90;;;4.70;;
75554;SDS011;66087;53.126;17.960;2023-08-30T01:00:06;13.00;;;5.40;;
75554;SDS011;66087;53.126;17.960;2023-08-30T01:02:36;13.50;;;5.30;;
75554;SDS011;66087;53.126;17.960;2023-08-30T01:05:03;11.20;;;5.50;;
75554;SDS011;66087;53.126;17.960;2023-08-30T01:07:30;11.80;;;5.80;;
75554;SDS011;66087;53.126;17.960;2023-08-30T01:09:57;12.30;;;5.50;;
75554;SDS011;66087;53.126;17.960;2023-08-30T01:12:29;14.10;;;6.10;;
75554;SDS011;66087;53.126;17.960;2023-08-30T01:15:09;12.50;;;5.20;;
75554;SDS011;66087;53.126;17.960;2023-08-30T01:17:39;13.10;;;5.70;;
75554;SDS011;66087;53.126;17.960;2023-08-30T01:20:10;10.50;;;4.50;;
75554;SDS011;66087;53.126;17.960;2023-08-30T01:22:46;10.50;;;5.00;;
75554;SDS011;66087;53.126;17.960;2023-08-30T01:28:09;11.20;;;5.00;;
75554;SDS011;66087;53.126;17.960;2023-08-30T01:30:39;12.50;;;5.40;;
75554;SDS011;66087;53.126;17.960;2023-08-30T01:33:08;6.30;;;2.80;;
75554;SDS011;66087;53.126;17.960;2023-08-30T01:35:36;9.10;;;4.40;;
75554;SDS011;66087;53.126;17.960;2023-08-30T01:38:07;10.70;;;5.00;;
75554;SDS011;66087;53.126;17.960;2023-08-30T01:40:35;9.30;;;4.10;;
75554;SDS011;66087;53.126;17.960;2023-08-30T01:43:05;10.90;;;4.90;;
75554;SDS011;66087;53.126;17.960;2023-08-30T01:45:36;12.90;;;5.10;;
75554;SDS011;66087;53.126;17.960;2023-08-30T01:48:09;9.80;;;4.30;;
75554;SDS011;66087;53.126;17.960;2023-08-30T01:50:42;12.70;;;4.30;;
75554;SDS011;66087;53.126;17.960;2023-08-30T01:53:11;9.00;;;4.10;;
75554;SDS011;66087;53.126;17.960;2023-08-30T01:55:40;11.70;;;5.00;;
75554;SDS011;66087;53.126;17.960;2023-08-30T01:58:07;11.20;;;4.00;;
75554;SDS011;66087;53.126;17.960;2023-08-30T02:00:35;9.90;;;3.90;;
75554;SDS011;66087;53.126;17.960;2023-08-30T02:05:49;9.60;;;3.90;;
75554;SDS011;66087;53.126;17.960;2023-08-30T02:08:26;10.90;;;4.50;;
75554;SDS011;66087;53.126;17.960;2023-08-30T02:11:01;11.80;;;5.40;;
75554;SDS011;66087;53.126;17.960;2023-08-30T02:13:30;10.80;;;4.50;;
75554;SDS011;66087;53.126;17.960;2023-08-30T02:16:01;8.40;;;3.50;;
75554;SDS011;66087;53.126;17.960;2023-08-30T02:18:29;8.80;;;3.50;;
75554;SDS011;66087;53.126;17.960;2023-08-30T02:20:57;9.30;;;3.90;;
75554;SDS011;66087;53.126;17.960;2023-08-30T02:23:28;10.00;;;4.10;;
75554;SDS011;66087;53.126;17.960;2023-08-30T02:25:57;8.10;;;3.00;;
75554;SDS011;66087;53.126;17.960;2023-08-30T02:28:23;9.90;;;4.00;;
75554;SDS011;66087;53.126;17.960;2023-08-30T02:30:52;10.60;;;3.80;;
75554;SDS011;66087;53.126;17.960;2023-08-30T02:33:21;8.40;;;3.40;;
75554;SDS011;66087;53.126;17.960;2023-08-30T02:35:47;9.00;;;4.00;;
75554;SDS011;66087;53.126;17.960;2023-08-30T02:38:14;7.80;;;3.30;;
75554;SDS011;66087;53.126;17.960;2023-08-30T02:40:41;8.50;;;3.40;;
75554;SDS011;66087;53.126;17.960;2023-08-30T02:43:08;7.90;;;4.00;;
75554;SDS011;66087;53.126;17.960;2023-08-30T02:45:35;7.30;;;2.70;;
75554;SDS011;66087;53.126;17.960;2023-08-30T02:48:02;10.00;;;4.10;;
75554;SDS011;66087;53.126;17.960;2023-08-30T02:50:28;7.20;;;3.20;;
75554;SDS011;66087;53.126;17.960;2023-08-30T02:52:56;8.50;;;3.30;;
75554;SDS011;66087;53.126;17.960;2023-08-30T02:55:22;10.30;;;4.30;;
75554;SDS011;66087;53.126;17.960;2023-08-30T02:57:49;12.80;;;6.50;;
75554;SDS011;66087;53.126;17.960;2023-08-30T03:00:16;8.20;;;3.60;;
75554;SDS011;66087;53.126;17.960;2023-08-30T03:02:55;9.50;;;4.10;;
75554;SDS011;66087;53.126;17.960;2023-08-30T03:05:22;14.50;;;7.20;;
75554;SDS011;66087;53.126;17.960;2023-08-30T03:07:50;13.60;;;7.40;;
75554;SDS011;66087;53.126;17.960;2023-08-30T03:10:17;10.90;;;5.60;;
75554;SDS011;66087;53.126;17.960;2023-08-30T03:12:45;15.00;;;7.50;;
75554;SDS011;66087;53.126;17.960;2023-08-30T03:15:12;12.10;;;6.10;;
75554;SDS011;66087;53.126;17.960;2023-08-30T03:17:39;12.30;;;5.20;;
75554;SDS011;66087;53.126;17.960;2023-08-30T03:20:06;12.20;;;6.00;;
75554;SDS011;66087;53.126;17.960;2023-08-30T03:22:33;11.00;;;5.70;;
75554;SDS011;66087;53.126;17.960;2023-08-30T03:25:00;13.40;;;7.40;;
75554;SDS011;66087;53.126;17.960;2023-08-30T03:27:30;11.10;;;5.20;;
75554;SDS011;66087;53.126;17.960;2023-08-30T03:29:57;11.80;;;5.50;;
75554;SDS011;66087;53.126;17.960;2023-08-30T03:32:23;4.90;;;2.20;;
75554;SDS011;66087;53.126;17.960;2023-08-30T03:34:50;8.10;;;3.90;;
75554;SDS011;66087;53.126;17.960;2023-08-30T03:37:17;9.80;;;4.60;;
75554;SDS011;66087;53.126;17.960;2023-08-30T03:39:44;7.30;;;2.60;;
75554;SDS011;66087;53.126;17.960;2023-08-30T03:42:11;9.30;;;4.20;;
75554;SDS011;66087;53.126;17.960;2023-08-30T03:44:38;8.20;;;3.70;;
75554;SDS011;66087;53.126;17.960;2023-08-30T03:47:06;11.80;;;5.00;;
75554;SDS011;66087;53.126;17.960;2023-08-30T03:49:33;7.40;;;3.80;;
75554;SDS011;66087;53.126;17.960;2023-08-30T03:52:02;4.90;;;2.50;;
75554;SDS011;66087;53.126;17.960;2023-08-30T03:54:29;6.20;;;2.40;;
75554;SDS011;66087;53.126;17.960;2023-08-30T03:56:55;7.00;;;2.80;;
75554;SDS011;66087;53.126;17.960;2023-08-30T03:59:23;7.20;;;3.70;;
75554;SDS011;66087;53.126;17.960;2023-08-30T04:01:53;5.60;;;2.20;;
75554;SDS011;66087;53.126;17.960;2023-08-30T04:04:21;6.10;;;2.90;;
75554;SDS011;66087;53.126;17.960;2023-08-30T04:06:48;7.70;;;3.40;;
75554;SDS011;66087;53.126;17.960;2023-08-30T04:09:16;9.10;;;3.30;;
75554;SDS011;66087;53.126;17.960;2023-08-30T04:11:43;7.30;;;3.10;;
75554;SDS011;66087;53.126;17.960;2023-08-30T04:14:13;5.70;;;2.10;;
75554;SDS011;66087;53.126;17.960;2023-08-30T04:16:42;9.00;;;3.80;;
75554;SDS011;66087;53.126;17.960;2023-08-30T04:19:10;5.80;;;2.20;;
75554;SDS011;66087;53.126;17.960;2023-08-30T04:21:37;5.10;;;2.30;;
75554;SDS011;66087;53.126;17.960;2023-08-30T04:24:04;7.80;;;3.10;;
75554;SDS011;66087;53.126;17.960;2023-08-30T04:26:32;6.30;;;2.80;;
75554;SDS011;66087;53.126;17.960;2023-08-30T04:28:59;8.50;;;3.60;;
75554;SDS011;66087;53.126;17.960;2023-08-30T04:31:25;7.70;;;3.50;;
75554;SDS011;66087;53.126;17.960;2023-08-30T04:33:53;9.70;;;3.80;;
75554;SDS011;66087;53.126;17.960;2023-08-30T04:36:21;6.20;;;2.30;;
75554;SDS011;66087;53.126;17.960;2023-08-30T04:38:48;7.60;;;3.30;;
75554;SDS011;66087;53.126;17.960;2023-08-30T04:41:16;7.60;;;3.30;;
75554;SDS011;66087;53.126;17.960;2023-08-30T04:43:44;7.50;;;2.60;;
75554;SDS011;66087;53.126;17.960;2023-08-30T04:46:11;5.90;;;2.50;;
75554;SDS011;66087;53.126;17.960;2023-08-30T04:48:37;9.30;;;3.00;;
75554;SDS011;66087;53.126;17.960;2023-08-30T04:51:04;8.70;;;3.10;;
75554;SDS011;66087;53.126;17.960;2023-08-30T04:53:31;8.90;;;2.70;;
75554;SDS011;66087;53.126;17.960;2023-08-30T04:55:58;7.60;;;2.30;;
75554;SDS011;66087;53.126;17.960;2023-08-30T04:58:25;4.90;;;1.50;;
75554;SDS011;66087;53.126;17.960;2023-08-30T05:00:55;9.20;;;3.80;;
75554;SDS011;66087;53.126;17.960;2023-08-30T05:03:23;7.70;;;2.80;;
75554;SDS011;66087;53.126;17.960;2023-08-30T05:05:51;7.00;;;3.10;;
75554;SDS011;66087;53.126;17.960;2023-08-30T05:08:17;7.90;;;2.50;;
75554;SDS011;66087;53.126;17.960;2023-08-30T05:10:45;7.70;;;3.80;;
75554;SDS011;66087;53.126;17.960;2023-08-30T05:13:15;12.00;;;3.60;;
75554;SDS011;66087;53.126;17.960;2023-08-30T05:15:42;11.70;;;3.90;;
75554;SDS011;66087;53.126;17.960;2023-08-30T05:18:09;9.60;;;3.40;;
75554;SDS011;66087;53.126;17.960;2023-08-30T05:20:35;10.50;;;3.90;;
75554;SDS011;66087;53.126;17.960;2023-08-30T05:23:03;8.80;;;3.60;;
75554;SDS011;66087;53.126;17.960;2023-08-30T05:25:30;8.40;;;3.50;;
75554;SDS011;66087;53.126;17.960;2023-08-30T05:27:57;9.70;;;4.00;;
75554;SDS011;66087;53.126;17.960;2023-08-30T05:30:24;9.60;;;3.30;;
75554;SDS011;66087;53.126;17.960;2023-08-30T05:32:53;10.20;;;3.40;;
75554;SDS011;66087;53.126;17.960;2023-08-30T05:35:41;9.90;;;4.30;;
75554;SDS011;66087;53.126;17.960;2023-08-30T05:38:19;8.50;;;2.70;;
75554;SDS011;66087;53.126;17.960;2023-08-30T05:40:55;6.10;;;2.50;;
75554;SDS011;66087;53.126;17.960;2023-08-30T05:43:23;5.10;;;2.30;;
75554;SDS011;66087;53.126;17.960;2023-08-30T05:45:50;9.20;;;3.70;;
75554;SDS011;66087;53.126;17.960;2023-08-30T05:48:17;7.70;;;2.90;;
75554;SDS011;66087;53.126;17.960;2023-08-30T05:50:44;6.70;;;3.00;;
75554;SDS011;66087;53.126;17.960;2023-08-30T05:53:11;7.80;;;3.20;;
75554;SDS011;66087;53.126;17.960;2023-08-30T05:55:38;8.60;;;3.00;;
75554;SDS011;66087;53.126;17.960;2023-08-30T05:58:06;7.00;;;2.80;;
75554;SDS011;66087;53.126;17.960;2023-08-30T06:00:33;7.40;;;3.00;;
75554;SDS011;66087;53.126;17.960;2023-08-30T06:02:59;7.00;;;2.80;;
75554;SDS011;66087;53.126;17.960;2023-08-30T06:05:26;8.20;;;3.10;;
75554;SDS011;66087;53.126;17.960;2023-08-30T06:07:56;6.10;;;5.70;;
75554;SDS011;66087;53.126;17.960;2023-08-30T06:12:52;5.80;;;1.80;;
75554;SDS011;66087;53.126;17.960;2023-08-30T06:15:18;4.20;;;1.60;;
75554;SDS011;66087;53.126;17.960;2023-08-30T06:17:45;4.80;;;2.10;;
75554;SDS011;66087;53.126;17.960;2023-08-30T06:20:16;5.10;;;1.90;;
75554;SDS011;66087;53.126;17.960;2023-08-30T06:22:48;6.10;;;2.30;;
75554;SDS011;66087;53.126;17.960;2023-08-30T06:25:15;5.40;;;2.10;;
75554;SDS011;66087;53.126;17.960;2023-08-30T06:27:43;6.80;;;2.90;;
75554;SDS011;66087;53.126;17.960;2023-08-30T06:30:21;7.70;;;2.20;;
75554;SDS011;66087;53.126;17.960;2023-08-30T06:32:49;5.90;;;2.10;;
75554;SDS011;66087;53.126;17.960;2023-08-30T06:35:16;6.80;;;2.90;;
75554;SDS011;66087;53.126;17.960;2023-08-30T06:37:43;6.40;;;2.60;;
75554;SDS011;66087;53.126;17.960;2023-08-30T06:40:10;6.70;;;2.90;;
75554;SDS011;66087;53.126;17.960;2023-08-30T06:42:37;5.70;;;2.50;;
75554;SDS011;66087;53.126;17.960;2023-08-30T06:45:05;6.20;;;2.30;;
75554;SDS011;66087;53.126;17.960;2023-08-30T06:50:09;5.30;;;2.50;;
75554;SDS011;66087;53.126;17.960;2023-08-30T06:52:43;5.30;;;2.50;;
75554;SDS011;66087;53.126;17.960;2023-08-30T06:55:10;5.30;;;2.30;;
75554;SDS011;66087;53.126;17.960;2023-08-30T06:57:38;5.20;;;2.20;;
75554;SDS011;66087;53.126;17.960;2023-08-30T07:00:07;5.10;;;1.90;;
75554;SDS011;66087;53.126;17.960;2023-08-30T07:02:36;5.10;;;2.40;;
75554;SDS011;66087;53.126;17.960;2023-08-30T07:05:04;7.40;;;3.00;;
75554;SDS011;66087;53.126;17.960;2023-08-30T07:07:31;5.80;;;2.90;;
75554;SDS011;66087;53.126;17.960;2023-08-30T07:09:58;7.80;;;2.80;;
75554;SDS011;66087;53.126;17.960;2023-08-30T07:12:26;6.30;;;2.70;;
75554;SDS011;66087;53.126;17.960;2023-08-30T07:14:53;5.40;;;2.70;;
75554;SDS011;66087;53.126;17.960;2023-08-30T07:17:22;5.20;;;2.20;;
75554;SDS011;66087;53.126;17.960;2023-08-30T07:19:49;4.60;;;2.10;;
75554;SDS011;66087;53.126;17.960;2023-08-30T07:22:16;4.70;;;2.10;;
75554;SDS011;66087;53.126;17.960;2023-08-30T07:24:46;6.20;;;2.50;;
75554;SDS011;66087;53.126;17.960;2023-08-30T07:27:13;3.90;;;1.60;;
75554;SDS011;66087;53.126;17.960;2023-08-30T07:29:40;4.80;;;2.10;;
75554;SDS011;66087;53.126;17.960;2023-08-30T07:32:11;5.00;;;2.30;;
75554;SDS011;66087;53.126;17.960;2023-08-30T07:34:38;5.00;;;2.10;;
75554;SDS011;66087;53.126;17.960;2023-08-30T07:37:04;4.20;;;1.60;;
75554;SDS011;66087;53.126;17.960;2023-08-30T07:39:31;4.60;;;2.10;;
75554;SDS011;66087;53.126;17.960;2023-08-30T07:41:58;4.10;;;1.70;;
75554;SDS011;66087;53.126;17.960;2023-08-30T07:44:25;6.50;;;2.20;;
75554;SDS011;66087;53.126;17.960;2023-08-30T07:46:52;4.00;;;1.60;;
75554;SDS011;66087;53.126;17.960;2023-08-30T07:49:20;4.00;;;1.90;;
75554;SDS011;66087;53.126;17.960;2023-08-30T07:51:46;6.00;;;1.70;;
75554;SDS011;66087;53.126;17.960;2023-08-30T07:54:13;4.30;;;2.00;;
75554;SDS011;66087;53.126;17.960;2023-08-30T07:56:41;2.80;;;1.60;;
75554;SDS011;66087;53.126;17.960;2023-08-30T07:59:08;3.50;;;1.50;;
75554;SDS011;66087;53.126;17.960;2023-08-30T08:01:34;4.00;;;1.40;;
75554;SDS011;66087;53.126;17.960;2023-08-30T08:04:01;2.70;;;1.40;;
75554;SDS011;66087;53.126;17.960;2023-08-30T08:06:28;3.00;;;1.50;;
75554;SDS011;66087;53.126;17.960;2023-08-30T08:08:54;3.40;;;1.90;;
75554;SDS011;66087;53.126;17.960;2023-08-30T08:11:21;2.70;;;1.50;;
75554;SDS011;66087;53.126;17.960;2023-08-30T08:13:49;3.70;;;1.60;;
75554;SDS011;66087;53.126;17.960;2023-08-30T08:16:15;3.80;;;1.90;;
75554;SDS011;66087;53.126;17.960;2023-08-30T08:18:42;2.90;;;1.40;;
75554;SDS011;66087;53.126;17.960;2023-08-30T08:21:09;4.20;;;1.50;;
75554;SDS011;66087;53.126;17.960;2023-08-30T08:23:55;2.50;;;1.20;;
75554;SDS011;66087;53.126;17.960;2023-08-30T08:26:22;4.00;;;1.70;;
75554;SDS011;66087;53.126;17.960;2023-08-30T08:28:49;2.40;;;1.40;;
75554;SDS011;66087;53.126;17.960;2023-08-30T08:31:15;2.60;;;1.60;;
75554;SDS011;66087;53.126;17.960;2023-08-30T08:33:43;4.50;;;1.40;;
75554;SDS011;66087;53.126;17.960;2023-08-30T08:36:10;2.20;;;1.10;;
75554;SDS011;66087;53.126;17.960;2023-08-30T08:38:37;3.50;;;1.80;;
75554;SDS011;66087;53.126;17.960;2023-08-30T08:41:05;3.40;;;1.80;;
75554;SDS011;66087;53.126;17.960;2023-08-30T08:43:33;3.10;;;1.70;;
75554;SDS011;66087;53.126;17.960;2023-08-30T08:46:03;3.20;;;1.80;;
75554;SDS011;66087;53.126;17.960;2023-08-30T08:48:33;3.50;;;1.80;;
75554;SDS011;66087;53.126;17.960;2023-08-30T08:51:05;4.10;;;1.80;;
75554;SDS011;66087;53.126;17.960;2023-08-30T08:53:33;2.00;;;1.20;;
75554;SDS011;66087;53.126;17.960;2023-08-30T08:56:00;3.90;;;2.10;;
75554;SDS011;66087;53.126;17.960;2023-08-30T08:58:28;2.80;;;1.30;;
75554;SDS011;66087;53.126;17.960;2023-08-30T09:00:56;3.90;;;1.50;;
75554;SDS011;66087;53.126;17.960;2023-08-30T09:03:24;3.30;;;1.60;;
75554;SDS011;66087;53.126;17.960;2023-08-30T09:05:51;3.90;;;1.20;;
75554;SDS011;66087;53.126;17.960;2023-08-30T09:08:18;3.20;;;1.40;;
75554;SDS011;66087;53.126;17.960;2023-08-30T09:10:47;2.50;;;1.20;;
75554;SDS011;66087;53.126;17.960;2023-08-30T09:13:16;2.20;;;1.00;;
75554;SDS011;66087;53.126;17.960;2023-08-30T09:15:43;2.10;;;1.00;;
75554;SDS011;66087;53.126;17.960;2023-08-30T09:18:17;2.70;;;1.40;;
75554;SDS011;66087;53.126;17.960;2023-08-30T09:20:45;2.50;;;1.10;;
75554;SDS011;66087;53.126;17.960;2023-08-30T09:23:19;2.40;;;1.30;;
75554;SDS011;66087;53.126;17.960;2023-08-30T09:25:47;1.70;;;0.90;;
75554;SDS011;66087;53.126;17.960;2023-08-30T09:28:20;2.00;;;1.20;;
75554;SDS011;66087;53.126;17.960;2023-08-30T09:30:49;2.30;;;1.00;;
75554;SDS011;66087;53.126;17.960;2023-08-30T09:33:20;2.60;;;1.20;;
75554;SDS011;66087;53.126;17.960;2023-08-30T09:35:49;2.20;;;1.30;;
75554;SDS011;66087;53.126;17.960;2023-08-30T09:38:18;1.60;;;1.00;;
75554;SDS011;66087;53.126;17.960;2023-08-30T09:40:46;2.10;;;1.00;;
75554;SDS011;66087;53.126;17.960;2023-08-30T09:43:18;1.40;;;0.80;;
75554;SDS011;66087;53.126;17.960;2023-08-30T09:45:48;2.70;;;1.60;;
75554;SDS011;66087;53.126;17.960;2023-08-30T09:48:15;2.70;;;1.10;;
75554;SDS011;66087;53.126;17.960;2023-08-30T09:50:44;2.60;;;1.00;;
75554;SDS011;66087;53.126;17.960;2023-08-30T09:53:15;4.10;;;1.50;;
75554;SDS011;66087;53.126;17.960;2023-08-30T09:55:44;4.40;;;1.50;;
75554;SDS011;66087;53.126;17.960;2023-08-30T09:58:13;2.40;;;1.50;;
75554;SDS011;66087;53.126;17.960;2023-08-30T10:00:41;2.00;;;1.00;;
75554;SDS011;66087;53.126;17.960;2023-08-30T10:03:09;2.10;;;1.10;;
75554;SDS011;66087;53.126;17.960;2023-08-30T10:05:36;1.90;;;1.10;;
75554;SDS011;66087;53.126;17.960;2023-08-30T10:08:06;1.70;;;1.00;;
75554;SDS011;66087;53.126;17.960;2023-08-30T10:10:34;2.90;;;1.20;;
75554;SDS011;66087;53.126;17.960;2023-08-30T10:13:02;2.20;;;1.20;;
75554;SDS011;66087;53.126;17.960;2023-08-30T10:15:33;1.90;;;1.20;;
75554;SDS011;66087;53.126;17.960;2023-08-30T10:18:03;1.80;;;1.10;;
75554;SDS011;66087;53.126;17.960;2023-08-30T10:20:35;1.80;;;0.90;;
75554;SDS011;66087;53.126;17.960;2023-08-30T10:23:05;4.30;;;1.70;;
75554;SDS011;66087;53.126;17.960;2023-08-30T10:25:32;2.80;;;1.30;;
75554;SDS011;66087;53.126;17.960;2023-08-30T10:28:01;2.10;;;1.10;;
75554;SDS011;66087;53.126;17.960;2023-08-30T10:30:30;2.50;;;1.40;;
75554;SDS011;66087;53.126;17.960;2023-08-30T10:32:58;1.60;;;1.00;;
75554;SDS011;66087;53.126;17.960;2023-08-30T10:35:25;2.30;;;1.40;;
75554;SDS011;66087;53.126;17.960;2023-08-30T10:37:56;1.40;;;0.80;;
75554;SDS011;66087;53.126;17.960;2023-08-30T10:40:24;1.70;;;0.60;;
75554;SDS011;66087;53.126;17.960;2023-08-30T10:43:05;2.80;;;1.10;;
75554;SDS011;66087;53.126;17.960;2023-08-30T10:45:32;4.30;;;1.70;;
75554;SDS011;66087;53.126;17.960;2023-08-30T10:47:59;2.90;;;1.50;;
75554;SDS011;66087;53.126;17.960;2023-08-30T10:50:27;2.80;;;1.50;;
75554;SDS011;66087;53.126;17.960;2023-08-30T10:52:56;2.60;;;1.40;;
75554;SDS011;66087;53.126;17.960;2023-08-30T10:55:23;2.70;;;1.40;;
75554;SDS011;66087;53.126;17.960;2023-08-30T10:57:58;3.00;;;1.50;;
75554;SDS011;66087;53.126;17.960;2023-08-30T11:00:27;3.30;;;2.00;;
75554;SDS011;66087;53.126;17.960;2023-08-30T11:02:56;4.90;;;2.10;;
75554;SDS011;66087;53.126;17.960;2023-08-30T11:05:25;4.70;;;1.80;;
75554;SDS011;66087;53.126;17.960;2023-08-30T11:07:54;2.70;;;1.60;;
75554;SDS011;66087;53.126;17.960;2023-08-30T11:10:21;4.10;;;1.80;;
75554;SDS011;66087;53.126;17.960;2023-08-30T11:12:48;3.60;;;1.60;;
75554;SDS011;66087;53.126;17.960;2023-08-30T11:15:16;5.80;;;1.40;;
75554;SDS011;66087;53.126;17.960;2023-08-30T11:17:43;4.70;;;1.50;;
75554;SDS011;66087;53.126;17.960;2023-08-30T11:20:10;2.10;;;0.90;;
75554;SDS011;66087;53.126;17.960;2023-08-30T11:22:46;2.60;;;1.10;;
75554;SDS011;66087;53.126;17.960;2023-08-30T11:25:16;2.40;;;1.20;;
75554;SDS011;66087;53.126;17.960;2023-08-30T11:27:43;2.70;;;0.90;;
75554;SDS011;66087;53.126;17.960;2023-08-30T11:30:10;2.90;;;1.50;;
75554;SDS011;66087;53.126;17.960;2023-08-30T11:33:00;4.70;;;1.70;;
75554;SDS011;66087;53.126;17.960;2023-08-30T11:35:32;2.90;;;1.40;;
75554;SDS011;66087;53.126;17.960;2023-08-30T11:37:59;3.50;;;1.40;;
75554;SDS011;66087;53.126;17.960;2023-08-30T11:40:25;2.60;;;1.30;;
75554;SDS011;66087;53.126;17.960;2023-08-30T11:42:52;2.90;;;1.60;;
75554;SDS011;66087;53.126;17.960;2023-08-30T11:45:19;1.50;;;0.90;;
75554;SDS011;66087;53.126;17.960;2023-08-30T11:47:45;2.10;;;1.00;;
75554;SDS011;66087;53.126;17.960;2023-08-30T11:50:13;1.80;;;0.90;;
75554;SDS011;66087;53.126;17.960;2023-08-30T11:52:40;1.40;;;0.90;;
75554;SDS011;66087;53.126;17.960;2023-08-30T11:55:07;2.20;;;1.00;;
75554;SDS011;66087;53.126;17.960;2023-08-30T11:57:35;2.60;;;1.10;;
75554;SDS011;66087;53.126;17.960;2023-08-30T12:00:07;1.50;;;0.80;;
75554;SDS011;66087;53.126;17.960;2023-08-30T12:02:39;2.80;;;1.70;;
75554;SDS011;66087;53.126;17.960;2023-08-30T12:05:10;2.80;;;1.50;;
75554;SDS011;66087;53.126;17.960;2023-08-30T12:07:38;2.10;;;1.00;;
75554;SDS011;66087;53.126;17.960;2023-08-30T12:10:08;2.10;;;1.10;;
75554;SDS011;66087;53.126;17.960;2023-08-30T12:12:36;2.90;;;1.60;;
75554;SDS011;66087;53.126;17.960;2023-08-30T12:15:10;2.90;;;1.20;;
75554;SDS011;66087;53.126;17.960;2023-08-30T12:17:43;2.00;;;1.20;;
75554;SDS011;66087;53.126;17.960;2023-08-30T12:20:17;2.00;;;0.90;;
75554;SDS011;66087;53.126;17.960;2023-08-30T12:22:46;2.50;;;1.10;;
75554;SDS011;66087;53.126;17.960;2023-08-30T12:25:21;2.80;;;0.60;;
75554;SDS011;66087;53.126;17.960;2023-08-30T12:27:50;1.90;;;1.10;;
75554;SDS011;66087;53.126;17.960;2023-08-30T12:30:18;2.90;;;1.70;;
75554;SDS011;66087;53.126;17.960;2023-08-30T12:32:47;2.60;;;1.40;;
75554;SDS011;66087;53.126;17.960;2023-08-30T12:35:15;4.00;;;1.40;;
75554;SDS011;66087;53.126;17.960;2023-08-30T12:37:42;2.70;;;1.20;;
75554;SDS011;66087;53.126;17.960;2023-08-30T12:40:13;3.60;;;1.40;;
75554;SDS011;66087;53.126;17.960;2023-08-30T12:42:40;2.60;;;1.20;;
75554;SDS011;66087;53.126;17.960;2023-08-30T12:45:07;1.20;;;0.90;;
75554;SDS011;66087;53.126;17.960;2023-08-30T12:47:34;3.00;;;1.20;;
75554;SDS011;66087;53.126;17.960;2023-08-30T12:50:00;2.70;;;1.00;;
75554;SDS011;66087;53.126;17.960;2023-08-30T12:52:27;2.60;;;1.10;;
75554;SDS011;66087;53.126;17.960;2023-08-30T12:54:54;2.20;;;1.00;;
75554;SDS011;66087;53.126;17.960;2023-08-30T12:57:21;4.00;;;1.70;;
75554;SDS011;66087;53.126;17.960;2023-08-30T12:59:48;2.20;;;1.10;;
75554;SDS011;66087;53.126;17.960;2023-08-30T13:04:42;2.90;;;1.30;;
75554;SDS011;66087;53.126;17.960;2023-08-30T13:07:08;2.90;;;1.30;;
75554;SDS011;66087;53.126;17.960;2023-08-30T13:09:35;2.30;;;1.00;;
75554;SDS011;66087;53.126;17.960;2023-08-30T13:12:04;3.10;;;1.50;;
75554;SDS011;66087;53.126;17.960;2023-08-30T13:14:30;4.20;;;1.40;;
75554;SDS011;66087;53.126;17.960;2023-08-30T13:16:58;3.10;;;1.90;;
75554;SDS011;66087;53.126;17.960;2023-08-30T13:19:25;3.40;;;2.10;;
75554;SDS011;66087;53.126;17.960;2023-08-30T13:21:51;4.00;;;2.10;;
75554;SDS011;66087;53.126;17.960;2023-08-30T13:24:19;3.40;;;1.40;;
75554;SDS011;66087;53.126;17.960;2023-08-30T13:26:47;3.60;;;1.60;;
75554;SDS011;66087;53.126;17.960;2023-08-30T13:29:13;2.80;;;1.00;;
75554;SDS011;66087;53.126;17.960;2023-08-30T13:31:43;2.80;;;1.10;;
75554;SDS011;66087;53.126;17.960;2023-08-30T13:34:10;3.70;;;1.50;;
75554;SDS011;66087;53.126;17.960;2023-08-30T13:36:36;2.50;;;1.20;;
75554;SDS011;66087;53.126;17.960;2023-08-30T13:39:06;3.40;;;1.50;;
75554;SDS011;66087;53.126;17.960;2023-08-30T13:41:33;3.50;;;1.30;;
75554;SDS011;66087;53.126;17.960;2023-08-30T13:44:02;3.40;;;1.30;;
75554;SDS011;66087;53.126;17.960;2023-08-30T13:46:30;4.10;;;0.90;;
75554;SDS011;66087;53.126;17.960;2023-08-30T13:48:58;2.90;;;1.20;;
75554;SDS011;66087;53.126;17.960;2023-08-30T13:53:52;2.00;;;1.00;;
75554;SDS011;66087;53.126;17.960;2023-08-30T13:56:21;2.40;;;1.30;;
75554;SDS011;66087;53.126;17.960;2023-08-30T13:58:50;1.40;;;0.60;;
75554;SDS011;66087;53.126;17.960;2023-08-30T14:01:17;1.60;;;0.50;;
75554;SDS011;66087;53.126;17.960;2023-08-30T14:03:44;2.60;;;0.70;;
75554;SDS011;66087;53.126;17.960;2023-08-30T14:06:10;1.40;;;0.50;;
75554;SDS011;66087;53.126;17.960;2023-08-30T14:08:37;3.10;;;0.90;;
75554;SDS011;66087;53.126;17.960;2023-08-30T14:11:08;1.30;;;0.80;;
75554;SDS011;66087;53.126;17.960;2023-08-30T14:13:36;1.20;;;0.50;;
75554;SDS011;66087;53.126;17.960;2023-08-30T14:16:04;1.30;;;0.70;;
75554;SDS011;66087;53.126;17.960;2023-08-30T14:18:31;1.50;;;0.60;;
75554;SDS011;66087;53.126;17.960;2023-08-30T14:20:58;1.00;;;0.60;;
75554;SDS011;66087;53.126;17.960;2023-08-30T14:23:28;1.00;;;0.50;;
75554;SDS011;66087;53.126;17.960;2023-08-30T14:25:58;1.10;;;0.60;;
75554;SDS011;66087;53.126;17.960;2023-08-30T14:28:26;1.50;;;0.60;;
75554;SDS011;66087;53.126;17.960;2023-08-30T14:30:53;1.60;;;1.00;;
75554;SDS011;66087;53.126;17.960;2023-08-30T14:33:20;1.30;;;0.70;;
75554;SDS011;66087;53.126;17.960;2023-08-30T14:35:48;2.00;;;0.80;;
75554;SDS011;66087;53.126;17.960;2023-08-30T14:38:17;1.60;;;0.40;;
75554;SDS011;66087;53.126;17.960;2023-08-30T14:40:43;1.60;;;0.70;;
75554;SDS011;66087;53.126;17.960;2023-08-30T14:43:10;1.40;;;1.00;;
75554;SDS011;66087;53.126;17.960;2023-08-30T14:45:37;1.10;;;0.60;;
75554;SDS011;66087;53.126;17.960;2023-08-30T14:48:03;1.20;;;0.50;;
75554;SDS011;66087;53.126;17.960;2023-08-30T14:50:30;1.30;;;0.70;;
75554;SDS011;66087;53.126;17.960;2023-08-30T14:52:58;1.70;;;0.70;;
75554;SDS011;66087;53.126;17.960;2023-08-30T14:55:24;1.40;;;0.70;;